createdAt,value
2022-08-28T00:00:20.332Z,93613.16
2022-08-28T00:01:19.301Z,93622.78
2022-08-28T00:02:15.996Z,93627.03
2022-08-28T00:03:15.519Z,93624.34
2022-08-28T00:04:14.450Z,93625.16
2022-08-28T00:05:11.688Z,93612.50
2022-08-28T00:06:09.003Z,93615.94
2022-08-28T00:07:06.086Z,93635.56
2022-08-28T00:08:03.338Z,93627.03
2022-08-28T00:08:59.964Z,93630.13
2022-08-28T00:09:56.588Z,93613.16
2022-08-28T00:10:53.996Z,93626.22
2022-08-28T00:11:50.626Z,93620.75
2022-08-28T00:12:49.213Z,93621.16
2022-08-28T00:13:45.839Z,93616.09
2022-08-28T00:14:42.766Z,93626.50
2022-08-28T00:15:39.631Z,93618.38
2022-08-28T00:16:36.804Z,93623.50
2022-08-28T00:17:33.455Z,93616.16
2022-08-28T00:18:31.484Z,93605.78
2022-08-28T00:19:28.207Z,93626.19
2022-08-28T00:20:29.141Z,93622.75
2022-08-28T00:21:25.766Z,93615.47
2022-08-28T00:22:22.437Z,93622.41
2022-08-28T00:23:20.329Z,93621.28
2022-08-28T00:24:17.638Z,93615.19
2022-08-28T00:25:16.167Z,93620.22
2022-08-28T00:26:32.933Z,93620.19
2022-08-28T00:27:48.488Z,93620.19
2022-08-28T00:28:45.107Z,93616.69
2022-08-28T00:29:41.760Z,93624.78
2022-08-28T00:30:51.026Z,93617.81
2022-08-28T00:31:47.905Z,93616.31
2022-08-28T00:32:44.610Z,93621.34
2022-08-28T00:33:43.370Z,93618.66
2022-08-28T00:34:40.178Z,93620.50
2022-08-28T00:35:38.514Z,93620.09
2022-08-28T00:36:36.428Z,93623.56
2022-08-28T00:37:33.076Z,93617.44
2022-08-28T00:38:30.793Z,93628.66
2022-08-28T00:39:27.641Z,93605.22
2022-08-28T00:40:33.054Z,93624.13
2022-08-28T00:41:31.959Z,93627.66
2022-08-28T00:42:28.687Z,93631.88
2022-08-28T00:43:34.389Z,93631.84
2022-08-28T00:44:31.247Z,93631.84
2022-08-28T00:45:28.671Z,93624.88
2022-08-28T00:46:25.328Z,93630.28
2022-08-28T00:47:24.563Z,93631.44
2022-08-28T00:48:22.291Z,93634.53
2022-08-28T00:49:25.153Z,93626.00
2022-08-28T00:50:25.488Z,93629.09
2022-08-28T00:51:40.619Z,93628.69
2022-08-28T00:52:38.094Z,93630.63
2022-08-28T00:53:34.906Z,93634.06
2022-08-28T00:54:34.687Z,93626.34
2022-08-28T00:55:31.678Z,93623.28
2022-08-28T00:56:30.006Z,93629.03
2022-08-28T00:57:38.873Z,93635.19
2022-08-28T00:58:36.060Z,93629.38
2022-08-28T00:59:33.365Z,93622.13
2022-08-28T01:00:35.842Z,93627.16
2022-08-28T01:01:32.609Z,93620.94
2022-08-28T01:02:29.606Z,93623.31
2022-08-28T01:03:27.129Z,93631.47
2022-08-28T01:04:25.919Z,93618.00
2022-08-28T01:05:23.069Z,93613.41
2022-08-28T01:06:22.792Z,93598.75
2022-08-28T01:07:19.979Z,93612.94
2022-08-28T01:08:16.920Z,93622.13
2022-08-28T01:09:15.710Z,93623.69
2022-08-28T01:10:21.292Z,93620.28
2022-08-28T01:11:19.758Z,93622.97
2022-08-28T01:12:29.887Z,93622.63
2022-08-28T01:13:27.697Z,93623.44
2022-08-28T01:14:26.644Z,93623.47
2022-08-28T01:15:28.873Z,93618.41
2022-08-28T01:16:31.648Z,93623.81
2022-08-28T01:17:34.404Z,93625.72
2022-08-28T01:18:32.730Z,93629.63
2022-08-28T01:19:35.187Z,93620.84
2022-08-28T01:20:32.752Z,93627.38
2022-08-28T01:21:33.482Z,93630.03
2022-08-28T01:22:38.761Z,93631.63
2022-08-28T01:23:55.588Z,93625.84
2022-08-28T01:24:56.214Z,93630.84
2022-08-28T01:25:53.035Z,93630.06
2022-08-28T01:26:50.101Z,93628.09
2022-08-28T01:27:46.838Z,93625.81
2022-08-28T01:28:44.113Z,93633.53
2022-08-28T01:29:40.888Z,93629.72
2022-08-28T01:30:44.576Z,93628.16
2022-08-28T01:31:41.716Z,93612.72
2022-08-28T01:32:42.467Z,93631.13
2022-08-28T01:33:42.496Z,93636.53
2022-08-28T01:34:40.423Z,93623.50
2022-08-28T01:35:40.964Z,93634.31
2022-08-28T01:36:37.794Z,93636.63
2022-08-28T01:37:34.394Z,93632.03
2022-08-28T01:38:31.054Z,93626.25
2022-08-28T01:39:28.029Z,93636.25
2022-08-28T01:40:30.207Z,93630.09
2022-08-28T01:41:26.984Z,93636.66
2022-08-28T01:42:24.944Z,93639.34
2022-08-28T01:43:23.929Z,93632.84
2022-08-28T01:44:24.839Z,93627.06
2022-08-28T01:45:24.048Z,93628.59
2022-08-28T01:46:21.091Z,93634.34
2022-08-28T01:47:17.813Z,93632.03
2022-08-28T01:48:16.175Z,93617.00
2022-08-28T01:49:12.967Z,93627.00
2022-08-28T01:50:13.185Z,93627.78
2022-08-28T01:51:11.448Z,93628.16
2022-08-28T01:52:09.478Z,93628.53
2022-08-28T01:53:12.335Z,93625.47
2022-08-28T01:54:10.728Z,93631.66
2022-08-28T01:55:10.055Z,93631.25
2022-08-28T01:56:10.629Z,93631.25
2022-08-28T01:57:07.301Z,93628.56
2022-08-28T01:58:06.826Z,93622.44
2022-08-28T01:59:07.344Z,93628.56
2022-08-28T02:00:04.773Z,93612.81
2022-08-28T02:01:01.883Z,93629.75
2022-08-28T02:01:58.560Z,93631.66
2022-08-28T02:02:57.324Z,93624.69
2022-08-28T02:03:54.034Z,93628.94
2022-08-28T02:04:50.833Z,93632.03
2022-08-28T02:05:47.571Z,93634.75
2022-08-28T02:06:44.176Z,93625.91
2022-08-28T02:07:40.839Z,93624.72
2022-08-28T02:08:37.686Z,93637.84
2022-08-28T02:09:34.461Z,93627.06
2022-08-28T02:10:33.372Z,93632.44
2022-08-28T02:11:32.220Z,93612.81
2022-08-28T02:12:30.074Z,93627.44
2022-08-28T02:13:26.746Z,93633.94
2022-08-28T02:14:23.521Z,93631.28
2022-08-28T02:15:20.194Z,93625.91
2022-08-28T02:16:21.251Z,93628.97
2022-08-28T02:17:17.979Z,93630.53
2022-08-28T02:18:14.946Z,93625.53
2022-08-28T02:19:12.277Z,93633.97
2022-08-28T02:20:09.536Z,93627.06
2022-08-28T02:21:07.158Z,93633.22
2022-08-28T02:22:08.231Z,93633.97
2022-08-28T02:23:04.984Z,93624.00
2022-08-28T02:24:02.008Z,93613.22
2022-08-28T02:24:58.629Z,93634.00
2022-08-28T02:25:55.285Z,93626.28
2022-08-28T02:26:51.968Z,93632.06
2022-08-28T02:27:49.245Z,93629.38
2022-08-28T02:28:45.894Z,93627.84
2022-08-28T02:29:43.231Z,93626.69
2022-08-28T02:30:40.431Z,93631.28
2022-08-28T02:31:37.493Z,93621.31
2022-08-28T02:32:34.352Z,93615.50
2022-08-28T02:33:31.050Z,93626.28
2022-08-28T02:34:27.651Z,93632.03
2022-08-28T02:35:24.708Z,93630.88
2022-08-28T02:36:21.562Z,93634.34
2022-08-28T02:37:18.287Z,93631.25
2022-08-28T02:38:15.450Z,93636.66
2022-08-28T02:39:12.811Z,93642.34
2022-08-28T02:40:10.874Z,93631.38
2022-08-28T02:41:08.115Z,93636.16
2022-08-28T02:42:05.345Z,93640.28
2022-08-28T02:43:02.061Z,93633.28
2022-08-28T02:43:59.093Z,93636.56
2022-08-28T02:44:55.746Z,93632.81
2022-08-28T02:45:52.427Z,93630.50
2022-08-28T02:46:49.177Z,93630.50
2022-08-28T02:47:47.421Z,93630.50
2022-08-28T02:48:44.804Z,93618.97
2022-08-28T02:49:42.279Z,93625.53
2022-08-28T02:50:38.898Z,93637.06
2022-08-28T02:51:35.559Z,93616.31
2022-08-28T02:52:32.161Z,93637.06
2022-08-28T02:53:30.155Z,93644.00
2022-08-28T02:54:26.966Z,93637.44
2022-08-28T02:55:24.810Z,93638.59
2022-08-28T02:56:21.572Z,93639.00
2022-08-28T02:57:18.252Z,93636.69
2022-08-28T02:58:14.929Z,93631.69
2022-08-28T02:59:11.686Z,93634.38
2022-08-28T03:00:12.135Z,93636.66
2022-08-28T03:01:11.431Z,93625.09
2022-08-28T03:02:08.118Z,93635.13
2022-08-28T03:03:05.409Z,93633.19
2022-08-28T03:04:05.499Z,93637.03
2022-08-28T03:05:02.149Z,93639.75
2022-08-28T03:06:00.749Z,93639.00
2022-08-28T03:06:59.250Z,93642.47
2022-08-28T03:07:56.308Z,93639.75
2022-08-28T03:08:52.906Z,93642.81
2022-08-28T03:09:50.238Z,93645.47
2022-08-28T03:10:46.860Z,93636.25
2022-08-28T03:11:46.985Z,93645.13
2022-08-28T03:12:43.700Z,93644.34
2022-08-28T03:13:40.398Z,93637.44
2022-08-28T03:14:37.617Z,93645.91
2022-08-28T03:15:34.362Z,93641.28
2022-08-28T03:16:32.641Z,93644.78
2022-08-28T03:17:29.362Z,93641.31
2022-08-28T03:18:30.252Z,93649.00
2022-08-28T03:19:27.539Z,93647.06
2022-08-28T03:20:24.298Z,93645.53
2022-08-28T03:21:20.986Z,93641.69
2022-08-28T03:22:38.912Z,93644.75
2022-08-28T03:23:36.394Z,93597.06
2022-08-28T03:24:33.367Z,93647.06
2022-08-28T03:25:29.992Z,93647.84
2022-08-28T03:26:26.982Z,93640.53
2022-08-28T03:27:23.559Z,93645.91
2022-08-28T03:28:20.257Z,93645.91
2022-08-28T03:29:17.083Z,93630.81
2022-08-28T03:30:14.429Z,93643.13
2022-08-28T03:31:14.944Z,93634.66
2022-08-28T03:32:12.422Z,93638.50
2022-08-28T03:33:09.121Z,93638.91
2022-08-28T03:34:06.758Z,93645.03
2022-08-28T03:35:05.522Z,93641.16
2022-08-28T03:36:04.565Z,93643.50
2022-08-28T03:37:01.545Z,93644.66
2022-08-28T03:37:58.217Z,93645.03
2022-08-28T03:38:58.085Z,93653.84
2022-08-28T03:39:55.140Z,93648.88
2022-08-28T03:40:52.215Z,93648.44
2022-08-28T03:41:48.874Z,93649.94
2022-08-28T03:42:53.417Z,93664.16
2022-08-28T03:43:51.023Z,93631.91
2022-08-28T03:44:47.760Z,93655.00
2022-08-28T03:45:59.498Z,93653.06
2022-08-28T03:46:56.269Z,93655.78
2022-08-28T03:47:53.343Z,93663.09
2022-08-28T03:48:51.354Z,93666.25
2022-08-28T03:49:55.585Z,93664.69
2022-08-28T03:50:55.528Z,93658.16
2022-08-28T03:51:52.786Z,93664.69
2022-08-28T03:52:49.500Z,93665.09
2022-08-28T03:53:47.431Z,93667.03
2022-08-28T03:54:44.089Z,93662.00
2022-08-28T03:55:42.093Z,93671.97
2022-08-28T03:56:42.233Z,93676.94
2022-08-28T03:57:39.567Z,93667.25
2022-08-28T03:58:36.313Z,93678.00
2022-08-28T03:59:33.747Z,93677.97
2022-08-28T04:00:30.496Z,93684.13
2022-08-28T04:01:28.145Z,93678.44
2022-08-28T04:02:24.898Z,93680.38
2022-08-28T04:03:22.260Z,93686.56
2022-08-28T04:04:18.902Z,93683.84
2022-08-28T04:05:16.758Z,93689.22
2022-08-28T04:06:14.127Z,93690.72
2022-08-28T04:07:10.797Z,93672.94
2022-08-28T04:08:08.433Z,93687.22
2022-08-28T04:09:05.845Z,93686.09
2022-08-28T04:10:03.973Z,93675.69
2022-08-28T04:11:01.040Z,93682.66
2022-08-28T04:11:57.696Z,93681.53
2022-08-28T04:12:54.315Z,93686.16
2022-08-28T04:13:50.984Z,93691.94
2022-08-28T04:14:47.762Z,93690.09
2022-08-28T04:15:44.960Z,93685.50
2022-08-28T04:16:41.661Z,93683.56
2022-08-28T04:17:41.135Z,93691.25
2022-08-28T04:18:40.150Z,93686.66
2022-08-28T04:19:36.849Z,93685.13
2022-08-28T04:20:33.687Z,93690.88
2022-08-28T04:21:30.669Z,93685.50
2022-08-28T04:22:27.540Z,93681.63
2022-08-28T04:23:24.600Z,93684.31
2022-08-28T04:24:21.308Z,93681.19
2022-08-28T04:25:18.189Z,93695.50
2022-08-28T04:26:19.451Z,93692.47
2022-08-28T04:27:16.251Z,93695.91
2022-08-28T04:28:13.337Z,93712.03
2022-08-28T04:29:10.123Z,93698.97
2022-08-28T04:30:08.332Z,93697.06
2022-08-28T04:31:08.259Z,93700.91
2022-08-28T04:32:04.976Z,93705.16
2022-08-28T04:33:02.295Z,93705.16
2022-08-28T04:34:00.324Z,93705.56
2022-08-28T04:34:56.966Z,93708.63
2022-08-28T04:35:54.023Z,93707.47
2022-08-28T04:36:51.940Z,93708.25
2022-08-28T04:37:48.568Z,93704.41
2022-08-28T04:38:45.912Z,93711.34
2022-08-28T04:39:42.790Z,93709.81
2022-08-28T04:40:40.965Z,93705.94
2022-08-28T04:41:38.864Z,93708.66
2022-08-28T04:42:36.301Z,93702.09
2022-08-28T04:43:33.030Z,93694.78
2022-08-28T04:44:29.861Z,93710.97
2022-08-28T04:45:26.578Z,93705.97
2022-08-28T04:46:24.125Z,93710.19
2022-08-28T04:47:22.983Z,93706.34
2022-08-28T04:48:19.689Z,93704.06
2022-08-28T04:49:16.929Z,93714.81
2022-08-28T04:50:13.577Z,93708.28
2022-08-28T04:51:12.829Z,93712.50
2022-08-28T04:52:10.718Z,93691.31
2022-08-28T04:53:07.622Z,93714.06
2022-08-28T04:54:04.586Z,93716.38
2022-08-28T04:55:01.995Z,93716.34
2022-08-28T04:56:00.626Z,93715.97
2022-08-28T04:56:57.288Z,93712.47
2022-08-28T04:57:53.934Z,93719.78
2022-08-28T04:58:50.797Z,93719.00
2022-08-28T04:59:47.838Z,93722.47
2022-08-28T05:00:47.336Z,93719.38
2022-08-28T05:01:44.208Z,93722.03
2022-08-28T05:02:40.924Z,93730.53
2022-08-28T05:03:37.688Z,93719.75
2022-08-28T05:04:34.779Z,93721.28
2022-08-28T05:05:31.441Z,93715.84
2022-08-28T05:06:29.844Z,93724.66
2022-08-28T05:07:26.519Z,93719.69
2022-08-28T05:08:26.945Z,93723.44
2022-08-28T05:09:23.719Z,93719.59
2022-08-28T05:10:20.351Z,93730.38
2022-08-28T05:11:33.006Z,93726.47
2022-08-28T05:12:31.465Z,93728.72
2022-08-28T05:13:28.820Z,93728.72
2022-08-28T05:14:25.471Z,93727.94
2022-08-28T05:15:22.432Z,93731.34
2022-08-28T05:16:20.828Z,93727.78
2022-08-28T05:17:17.767Z,93737.13
2022-08-28T05:18:16.338Z,93737.09
2022-08-28T05:19:13.998Z,93738.22
2022-08-28T05:20:11.163Z,93732.78
2022-08-28T05:21:15.855Z,93738.56
2022-08-28T05:22:12.461Z,93735.09
2022-08-28T05:23:10.117Z,93736.22
2022-08-28T05:24:07.522Z,93733.78
2022-08-28T05:25:07.917Z,93732.56
2022-08-28T05:26:04.882Z,93739.91
2022-08-28T05:27:01.515Z,93723.69
2022-08-28T05:27:58.191Z,93733.34
2022-08-28T05:28:56.474Z,93721.75
2022-08-28T05:29:55.502Z,93734.44
2022-08-28T05:30:55.132Z,93740.16
2022-08-28T05:31:52.145Z,93741.25
2022-08-28T05:32:48.855Z,93735.84
2022-08-28T05:33:47.430Z,93741.22
2022-08-28T05:34:44.095Z,93738.88
2022-08-28T05:35:44.150Z,93741.91
2022-08-28T05:36:41.791Z,93751.94
2022-08-28T05:37:38.442Z,93748.41
2022-08-28T05:38:35.327Z,93746.53
2022-08-28T05:39:32.095Z,93747.91
2022-08-28T05:40:28.764Z,93740.22
2022-08-28T05:41:30.207Z,93740.28
2022-08-28T05:42:30.755Z,93739.47
2022-08-28T05:43:28.089Z,93743.28
2022-08-28T05:44:24.733Z,93738.66
2022-08-28T05:45:22.560Z,93730.13
2022-08-28T05:46:20.687Z,93740.13
2022-08-28T05:47:18.127Z,93744.69
2022-08-28T05:48:18.328Z,93736.59
2022-08-28T05:49:17.800Z,93740.38
2022-08-28T05:50:14.555Z,93737.66
2022-08-28T05:51:22.342Z,93735.28
2022-08-28T05:52:19.194Z,93742.63
2022-08-28T05:53:18.086Z,93741.78
2022-08-28T05:54:15.720Z,93730.28
2022-08-28T05:55:13.307Z,93745.34
2022-08-28T05:56:16.209Z,93734.03
2022-08-28T05:57:12.843Z,93746.22
2022-08-28T05:58:41.865Z,93742.59
2022-08-28T05:59:38.500Z,93741.78
2022-08-28T06:00:35.144Z,93736.56
2022-08-28T06:01:34.901Z,93738.81
2022-08-28T06:02:31.849Z,93743.81
2022-08-28T06:03:28.492Z,93738.59
2022-08-28T06:04:28.239Z,93727.66
2022-08-28T06:05:24.929Z,93738.59
2022-08-28T06:06:24.625Z,93742.41
2022-08-28T06:07:21.309Z,93739.06
2022-08-28T06:08:17.924Z,93734.47
2022-08-28T06:09:24.197Z,93732.00
2022-08-28T06:10:23.402Z,93737.16
2022-08-28T06:11:21.802Z,93734.94
2022-08-28T06:12:21.579Z,93723.97
2022-08-28T06:13:18.587Z,93734.09
2022-08-28T06:14:19.642Z,93739.38
2022-08-28T06:15:16.969Z,93741.63
2022-08-28T06:16:14.564Z,93747.66
2022-08-28T06:17:11.385Z,93736.50
2022-08-28T06:18:08.134Z,93734.97
2022-08-28T06:19:05.753Z,93733.94
2022-08-28T06:20:02.578Z,93736.97
2022-08-28T06:21:02.870Z,93735.75
2022-08-28T06:22:01.569Z,93743.31
2022-08-28T06:23:03.867Z,93740.88
2022-08-28T06:24:00.760Z,93716.97
2022-08-28T06:24:57.574Z,93745.84
2022-08-28T06:25:54.204Z,93744.78
2022-08-28T06:26:52.093Z,93747.06
2022-08-28T06:27:49.640Z,93741.56
2022-08-28T06:28:46.454Z,93739.16
2022-08-28T06:29:44.783Z,93752.94
2022-08-28T06:30:52.850Z,93749.13
2022-08-28T06:32:04.459Z,93754.94
2022-08-28T06:33:01.177Z,93754.09
2022-08-28T06:33:59.277Z,93746.16
2022-08-28T06:34:55.895Z,93758.16
2022-08-28T06:35:54.642Z,93752.06
2022-08-28T06:36:54.013Z,93750.72
2022-08-28T06:37:50.921Z,93756.25
2022-08-28T06:38:47.640Z,93738.97
2022-08-28T06:39:44.378Z,93757.81
2022-08-28T06:40:43.052Z,93741.56
2022-08-28T06:41:43.279Z,93754.75
2022-08-28T06:42:39.912Z,93753.53
2022-08-28T06:43:36.660Z,93754.31
2022-08-28T06:44:33.450Z,93755.22
2022-08-28T06:45:31.134Z,93761.13
2022-08-28T06:46:30.434Z,93758.03
2022-08-28T06:47:27.073Z,93762.50
2022-08-28T06:48:27.466Z,93757.59
2022-08-28T06:49:24.105Z,93756.31
2022-08-28T06:50:20.798Z,93761.88
2022-08-28T06:51:17.619Z,93761.25
2022-08-28T06:52:14.273Z,93756.59
2022-08-28T06:53:13.435Z,93760.97
2022-08-28T06:54:10.374Z,93762.78
2022-08-28T06:55:09.985Z,93764.47
2022-08-28T06:56:11.761Z,93759.91
2022-08-28T06:57:15.146Z,93762.97
2022-08-28T06:58:12.948Z,93767.06
2022-08-28T06:59:09.745Z,93765.19
2022-08-28T07:00:07.810Z,93759.81
2022-08-28T07:01:10.690Z,93761.34
2022-08-28T07:02:09.488Z,93760.31
2022-08-28T07:03:06.441Z,93761.59
2022-08-28T07:04:09.596Z,93759.13
2022-08-28T07:05:06.884Z,93758.38
2022-08-28T07:06:05.778Z,93756.25
2022-08-28T07:07:02.904Z,93759.94
2022-08-28T07:07:59.992Z,93758.25
2022-08-28T07:08:56.613Z,93733.97
2022-08-28T07:09:53.262Z,93755.97
2022-08-28T07:10:49.960Z,93762.22
2022-08-28T07:11:46.894Z,93757.50
2022-08-28T07:12:44.878Z,93748.56
2022-08-28T07:13:45.523Z,93752.19
2022-08-28T07:14:42.775Z,93745.06
2022-08-28T07:15:41.945Z,93754.78
2022-08-28T07:16:39.553Z,93749.66
2022-08-28T07:17:36.235Z,93758.41
2022-08-28T07:18:32.900Z,93749.59
2022-08-28T07:19:29.540Z,93756.09
2022-08-28T07:20:26.162Z,93757.16
2022-08-28T07:21:22.961Z,93750.66
2022-08-28T07:22:19.645Z,93753.06
2022-08-28T07:23:16.256Z,93755.41
2022-08-28T07:24:14.774Z,93751.16
2022-08-28T07:25:11.588Z,93754.50
2022-08-28T07:26:12.365Z,93756.13
2022-08-28T07:27:09.250Z,93749.25
2022-08-28T07:28:05.905Z,93751.28
2022-08-28T07:29:10.193Z,93757.84
2022-08-28T07:30:10.185Z,93752.44
2022-08-28T07:31:11.743Z,93758.00
2022-08-28T07:32:09.075Z,93735.91
2022-08-28T07:33:05.790Z,93749.09
2022-08-28T07:34:02.409Z,93754.69
2022-08-28T07:34:59.763Z,93748.47
2022-08-28T07:35:57.508Z,93750.22
2022-08-28T07:36:54.311Z,93758.56
2022-08-28T07:37:50.955Z,93753.66
2022-08-28T07:38:47.869Z,93758.31
2022-08-28T07:39:45.115Z,93753.19
2022-08-28T07:40:41.816Z,93753.50
2022-08-28T07:41:42.528Z,93748.38
2022-08-28T07:43:14.773Z,93752.13
2022-08-28T07:44:33.308Z,93754.16
2022-08-28T07:45:30.211Z,93750.84
2022-08-28T07:46:27.027Z,93754.13
2022-08-28T07:47:26.041Z,93748.81
2022-08-28T07:48:22.766Z,93751.28
2022-08-28T07:49:19.681Z,93745.59
2022-08-28T07:50:16.388Z,93744.03
2022-08-28T07:51:13.053Z,93737.00
2022-08-28T07:52:10.425Z,93736.66
2022-08-28T07:53:07.166Z,93744.44
2022-08-28T07:54:04.530Z,93740.69
2022-08-28T07:55:01.411Z,93738.19
2022-08-28T07:55:58.529Z,93744.03
2022-08-28T07:56:55.405Z,93745.47
2022-08-28T07:57:52.157Z,93742.66
2022-08-28T07:58:49.854Z,93745.16
2022-08-28T07:59:47.347Z,93743.50
2022-08-28T08:00:44.349Z,93747.06
2022-08-28T08:01:43.888Z,93749.50
2022-08-28T08:02:40.660Z,93745.84
2022-08-28T08:03:37.551Z,93750.88
2022-08-28T08:04:34.709Z,93746.75
2022-08-28T08:05:31.329Z,93749.66
2022-08-28T08:06:33.896Z,93737.13
2022-08-28T08:07:32.938Z,93741.28
2022-08-28T08:08:31.806Z,93743.53
2022-08-28T08:09:28.592Z,93738.69
2022-08-28T08:10:25.617Z,93743.53
2022-08-28T08:11:32.455Z,93742.75
2022-08-28T08:12:29.526Z,93734.78
2022-08-28T08:13:26.384Z,93744.84
2022-08-28T08:14:23.486Z,93740.28
2022-08-28T08:15:20.208Z,93742.47
2022-08-28T08:16:19.766Z,93743.25
2022-08-28T08:17:16.617Z,93746.94
2022-08-28T08:18:13.911Z,93744.28
2022-08-28T08:19:14.098Z,93747.22
2022-08-28T08:20:11.068Z,93741.44
2022-08-28T08:21:10.699Z,93745.31
2022-08-28T08:22:07.395Z,93745.88
2022-08-28T08:23:04.052Z,93746.94
2022-08-28T08:24:00.830Z,93741.69
2022-08-28T08:24:57.613Z,93739.88
2022-08-28T08:25:59.850Z,93736.91
2022-08-28T08:27:00.963Z,93745.25
2022-08-28T08:27:58.168Z,93743.88
2022-08-28T08:28:55.463Z,93730.63
2022-08-28T08:29:52.096Z,93743.84
2022-08-28T08:30:48.858Z,93748.78
2022-08-28T08:31:46.006Z,93750.59
2022-08-28T08:32:42.628Z,93746.06
2022-08-28T08:33:42.932Z,93746.69
2022-08-28T08:34:42.424Z,93732.78
2022-08-28T08:35:39.549Z,93744.25
2022-08-28T08:36:38.381Z,93746.66
2022-08-28T08:37:35.041Z,93727.94
2022-08-28T08:38:33.093Z,93742.31
2022-08-28T08:39:31.743Z,93745.63
2022-08-28T08:40:29.242Z,93723.34
2022-08-28T08:41:29.640Z,93739.00
2022-08-28T08:42:29.569Z,93737.28
2022-08-28T08:43:28.934Z,93712.50
2022-08-28T08:44:34.206Z,93741.34
2022-08-28T08:45:34.588Z,93732.56
2022-08-28T08:46:37.582Z,93737.41
2022-08-28T08:47:56.375Z,93737.72
2022-08-28T08:48:56.004Z,93743.06
2022-08-28T08:50:00.479Z,93733.78
2022-08-28T08:51:04.355Z,93735.00
2022-08-28T08:52:36.396Z,93737.28
2022-08-28T08:53:46.273Z,93743.00
2022-08-28T08:54:45.605Z,93740.41
2022-08-28T08:55:46.303Z,93738.63
2022-08-28T08:56:43.788Z,93739.06
2022-08-28T08:57:42.020Z,93735.75
2022-08-28T08:58:50.397Z,93742.53
2022-08-28T08:59:47.401Z,93741.50
2022-08-28T09:01:09.666Z,93718.59
2022-08-28T09:02:18.392Z,93735.44
2022-08-28T09:03:25.755Z,93738.00
2022-08-28T09:05:02.774Z,93742.72
2022-08-28T09:06:02.843Z,93733.81
2022-08-28T09:07:02.589Z,93742.53
2022-08-28T09:08:04.750Z,93738.50
2022-08-28T09:09:05.201Z,93743.97
2022-08-28T09:10:01.967Z,93734.16
2022-08-28T09:11:24.131Z,93740.13
2022-08-28T09:12:20.820Z,93740.53
2022-08-28T09:13:26.505Z,93741.53
2022-08-28T09:14:41.257Z,93742.91
2022-08-28T09:15:47.577Z,93736.97
2022-08-28T09:16:47.563Z,93739.91
2022-08-28T09:18:12.704Z,93744.56
2022-08-28T09:19:15.033Z,93738.66
2022-08-28T09:20:15.216Z,93744.41
2022-08-28T09:21:12.124Z,93738.47
2022-08-28T09:22:08.811Z,93740.34
2022-08-28T09:23:13.552Z,93742.25
2022-08-28T09:24:29.634Z,93736.00
2022-08-28T09:25:44.427Z,93741.66
2022-08-28T09:26:41.475Z,93741.84
2022-08-28T09:27:47.737Z,93737.59
2022-08-28T09:28:50.792Z,93738.03
2022-08-28T09:30:07.491Z,93734.56
2022-08-28T09:31:07.537Z,93737.28
2022-08-28T09:32:32.884Z,93729.94
2022-08-28T09:33:35.457Z,93730.06
2022-08-28T09:34:38.573Z,93732.09
2022-08-28T09:35:37.571Z,93729.03
2022-08-28T09:36:38.797Z,93731.28
2022-08-28T09:37:37.101Z,93728.84
2022-08-28T09:38:33.821Z,93727.78
2022-08-28T09:39:31.584Z,93725.06
2022-08-28T09:40:50.030Z,93729.66
2022-08-28T09:42:08.104Z,93733.00
2022-08-28T09:43:28.469Z,93721.28
2022-08-28T09:44:25.613Z,93729.06
2022-08-28T09:45:25.496Z,93726.91
2022-08-28T09:46:30.336Z,93705.22
2022-08-28T09:47:57.980Z,93721.34
2022-08-28T09:49:08.587Z,93730.59
2022-08-28T09:50:39.366Z,93721.41
2022-08-28T09:51:38.909Z,93705.84
2022-08-28T09:52:35.572Z,93712.88
2022-08-28T09:53:36.960Z,93711.31
2022-08-28T09:54:42.711Z,93714.25
2022-08-28T09:55:54.787Z,93709.31
2022-08-28T09:56:51.751Z,93707.22
2022-08-28T09:57:48.545Z,93710.16
2022-08-28T09:58:49.891Z,93715.34
2022-08-28T09:59:46.545Z,93698.41
2022-08-28T10:00:55.188Z,93713.69
2022-08-28T10:02:20.998Z,93705.94
2022-08-28T10:03:30.764Z,93698.56
2022-08-28T10:05:10.707Z,93709.97
2022-08-28T10:06:35.067Z,93702.91
2022-08-28T10:07:57.040Z,93707.44
2022-08-28T10:09:16.546Z,93705.25
2022-08-28T10:10:41.799Z,93707.16
2022-08-28T10:12:20.099Z,93706.81
2022-08-28T10:13:31.608Z,93701.38
2022-08-28T10:14:38.258Z,93703.91
2022-08-28T10:15:59.047Z,93702.38
2022-08-28T10:17:23.529Z,93692.03
2022-08-28T10:18:45.196Z,93698.06
2022-08-28T10:20:07.967Z,93696.16
2022-08-28T10:21:28.310Z,93697.50
2022-08-28T10:22:40.297Z,93692.22
2022-08-28T10:23:39.839Z,93693.75
2022-08-28T10:24:59.125Z,93694.44
2022-08-28T10:26:27.539Z,93686.47
2022-08-28T10:28:01.749Z,93692.19
2022-08-28T10:29:16.574Z,93685.81
2022-08-28T10:30:21.774Z,93681.66
2022-08-28T10:31:26.920Z,93687.25
2022-08-28T10:32:42.863Z,93675.47
2022-08-28T10:34:08.041Z,93692.25
2022-08-28T10:35:22.920Z,93688.72
2022-08-28T10:36:34.747Z,93685.53
2022-08-28T10:37:53.723Z,93679.75
2022-08-28T10:39:08.320Z,93689.91
2022-08-28T10:40:34.866Z,93678.59
2022-08-28T10:41:43.999Z,93682.69
2022-08-28T10:43:04.015Z,93683.06
2022-08-28T10:44:02.865Z,93683.69
2022-08-28T10:45:08.728Z,93674.53
2022-08-28T10:46:12.677Z,93685.16
2022-08-28T10:47:12.075Z,93684.41
2022-08-28T10:48:32.071Z,93681.53
2022-08-28T10:49:41.708Z,93684.69
2022-08-28T10:50:51.453Z,93678.63
2022-08-28T10:51:53.138Z,93681.16
2022-08-28T10:53:00.260Z,93680.56
2022-08-28T10:54:03.214Z,93683.94
2022-08-28T10:55:03.685Z,93668.44
2022-08-28T10:56:07.455Z,93664.16
2022-08-28T10:57:39.649Z,93669.56
2022-08-28T10:58:40.770Z,93672.81
2022-08-28T10:59:41.725Z,93670.22
2022-08-28T11:00:43.175Z,93671.38
2022-08-28T11:01:42.852Z,93660.56
2022-08-28T11:02:44.266Z,93671.09
2022-08-28T11:03:45.562Z,93669.84
2022-08-28T11:04:43.201Z,93661.19
2022-08-28T11:05:53.648Z,93658.81
2022-08-28T11:06:52.100Z,93661.03
2022-08-28T11:07:53.659Z,93666.69
2022-08-28T11:08:56.277Z,93660.50
2022-08-28T11:09:53.363Z,93666.75
2022-08-28T11:10:54.362Z,93655.34
2022-08-28T11:12:01.083Z,93658.56
2022-08-28T11:12:59.824Z,93657.44
2022-08-28T11:13:59.759Z,93658.88
2022-08-28T11:14:56.387Z,93660.09
2022-08-28T11:15:53.778Z,93656.63
2022-08-28T11:16:51.684Z,93652.88
2022-08-28T11:17:48.489Z,93646.66
2022-08-28T11:18:53.987Z,93649.00
2022-08-28T11:20:22.798Z,93648.69
2022-08-28T11:21:22.989Z,93650.38
2022-08-28T11:22:22.440Z,93653.75
2022-08-28T11:23:38.459Z,93653.53
2022-08-28T11:25:19.738Z,93650.91
2022-08-28T11:26:40.922Z,93652.91
2022-08-28T11:27:39.633Z,93647.63
2022-08-28T11:28:36.285Z,93650.88
2022-08-28T11:30:10.871Z,93645.41
2022-08-28T11:31:07.527Z,93652.41
2022-08-28T11:32:32.099Z,93643.56
2022-08-28T11:33:40.703Z,93639.13
2022-08-28T11:35:00.023Z,93651.97
2022-08-28T11:35:56.709Z,93643.44
2022-08-28T11:37:00.615Z,93643.03
2022-08-28T11:37:58.466Z,93641.53
2022-08-28T11:38:55.590Z,93649.00
2022-08-28T11:40:12.187Z,93640.44
2022-08-28T11:41:17.648Z,93643.84
2022-08-28T11:42:34.055Z,93629.78
2022-08-28T11:43:34.989Z,93635.34
2022-08-28T11:44:45.992Z,93640.66
2022-08-28T11:45:42.672Z,93638.56
2022-08-28T11:46:47.724Z,93636.13
2022-08-28T11:47:52.292Z,93635.19
2022-08-28T11:48:57.222Z,93636.16
2022-08-28T11:49:53.926Z,93633.88
2022-08-28T11:51:06.945Z,93631.56
2022-08-28T11:52:09.623Z,93637.09
2022-08-28T11:53:20.590Z,93627.94
2022-08-28T11:54:49.417Z,93635.06